TimeEST,TemperatureF,Dew PointF,Humidity,Sea Level PressureIn,VisibilityMPH,Wind Direction,Wind SpeedMPH,Gust SpeedMPH,PrecipitationIn,Events,Conditions,WindDirDegrees,DateUTC
12:53 AM,48.9,45.0,86,30.26,9.0,NNE,4.6,-,N/A,,Overcast,30,2012-11-16 05:53:00
1:53 AM,48.9,45.0,86,30.26,10.0,North,4.6,-,N/A,,Overcast,10,2012-11-16 06:53:00
2:30 AM,46.4,44.6,93,30.25,10.0,North,4.6,-,N/A,,Partly Cloudy,10,2012-11-16 07:30:00
2:53 AM,46.0,44.1,93,30.25,9.0,North,5.8,-,N/A,,Clear,350,2012-11-16 07:53:00
3:53 AM,44.1,43.0,96,30.25,6.0,NNE,6.9,-,N/A,,Clear,30,2012-11-16 08:53:00
4:53 AM,43.0,42.1,97,30.25,6.0,NNE,4.6,-,N/A,,Clear,20,2012-11-16 09:53:00
5:53 AM,42.1,39.9,92,30.27,8.0,NNE,3.5,-,N/A,,Clear,30,2012-11-16 10:53:00
6:53 AM,41.0,39.2,93,30.27,7.0,NE,3.5,-,N/A,,Scattered Clouds,50,2012-11-16 11:53:00
7:03 AM,42.8,39.2,87,30.27,7.0,ENE,4.6,-,N/A,,Mostly Cloudy,60,2012-11-16 12:03:00
7:53 AM,42.1,41.0,96,30.29,6.0,ENE,6.9,-,N/A,,Overcast,60,2012-11-16 12:53:00
8:12 AM,42.8,41.0,93,30.29,8.0,East,4.6,-,N/A,,Scattered Clouds,80,2012-11-16 13:12:00
8:40 AM,44.6,41.0,87,30.30,8.0,ENE,4.6,-,N/A,,Mostly Cloudy,60,2012-11-16 13:40:00
8:50 AM,44.6,41.0,87,30.31,8.0,NE,5.8,-,N/A,,Overcast,50,2012-11-16 13:50:00
8:53 AM,44.1,41.0,89,30.31,8.0,ENE,5.8,-,N/A,,Overcast,60,2012-11-16 13:53:00
9:53 AM,45.0,42.1,90,30.33,9.0,ENE,6.9,-,N/A,,Overcast,70,2012-11-16 14:53:00
10:53 AM,46.0,43.0,89,30.33,9.0,East,8.1,-,N/A,,Overcast,80,2012-11-16 15:53:00
11:53 AM,48.9,43.0,80,30.32,10.0,NE,4.6,-,N/A,,Overcast,40,2012-11-16 16:53:00
12:17 PM,51.8,42.8,71,30.31,10.0,NE,6.9,-,N/A,,Scattered Clouds,40,2012-11-16 17:17:00
12:53 PM,54.0,42.1,64,30.29,10.0,Variable,4.6,-,N/A,,Clear,0,2012-11-16 17:53:00
1:53 PM,57.9,39.9,51,30.26,10.0,NE,8.1,-,N/A,,Clear,50,2012-11-16 18:53:00
2:53 PM,57.0,39.0,51,30.24,10.0,ENE,8.1,-,N/A,,Clear,70,2012-11-16 19:53:00
3:53 PM,59.0,39.0,48,30.25,10.0,ENE,9.2,-,N/A,,Clear,60,2012-11-16 20:53:00
4:53 PM,57.9,37.9,47,30.25,10.0,NNE,4.6,-,N/A,,Clear,30,2012-11-16 21:53:00
5:53 PM,51.1,41.0,68,30.25,10.0,NNE,3.5,-,N/A,,Clear,30,2012-11-16 22:53:00
6:53 PM,45.0,41.0,86,30.27,10.0,Calm,Calm,-,N/A,,Clear,0,2012-11-16 23:53:00
7:53 PM,42.1,39.9,92,30.29,10.0,Calm,Calm,-,N/A,,Clear,0,2012-11-17 00:53:00
8:53 PM,39.9,39.0,97,30.30,9.0,Calm,Calm,-,N/A,,Clear,0,2012-11-17 01:53:00
9:53 PM,39.0,37.9,96,30.31,6.0,Calm,Calm,-,N/A,,Clear,0,2012-11-17 02:53:00
10:53 PM,37.9,36.0,93,30.31,7.0,Calm,Calm,-,N/A,,Clear,0,2012-11-17 03:53:00
11:53 PM,36.0,35.1,97,30.31,7.0,Calm,Calm,-,N/A,,Clear,0,2012-11-17 04:53:00